createdAt,value
2022-10-11T00:01:52.253Z,3.74
2022-10-11T00:04:53.955Z,3.74
2022-10-11T00:07:56.085Z,3.69
2022-10-11T00:11:03.726Z,3.64
2022-10-11T00:14:06.085Z,3.64
2022-10-11T00:17:08.226Z,3.64
2022-10-11T00:20:10.899Z,3.63
2022-10-11T00:23:12.553Z,3.62
2022-10-11T00:26:14.357Z,3.60
2022-10-11T00:29:15.960Z,3.58
2022-10-11T00:32:17.930Z,3.56
2022-10-11T00:35:19.923Z,3.56
2022-10-11T00:38:21.644Z,3.54
2022-10-11T00:41:23.202Z,3.53
2022-10-11T00:44:27.336Z,3.54
2022-10-11T00:47:28.998Z,3.54
2022-10-11T00:50:33.505Z,3.57
2022-10-11T00:53:35.221Z,3.60
2022-10-11T00:56:38.608Z,3.59
2022-10-11T00:59:47.288Z,3.57
2022-10-11T01:02:49.335Z,3.52
2022-10-11T01:05:50.987Z,3.46
2022-10-11T01:08:52.604Z,3.44
2022-10-11T01:11:56.995Z,3.43
2022-10-11T01:15:17.761Z,3.43
2022-10-11T01:18:30.365Z,3.42
2022-10-11T01:21:53.314Z,3.40
2022-10-11T01:25:24.886Z,3.36
2022-10-11T01:28:50.475Z,3.34
2022-10-11T01:32:07.650Z,3.30
2022-10-11T01:35:15.651Z,3.26
2022-10-11T01:38:34.584Z,3.24
2022-10-11T01:41:43.164Z,3.22
2022-10-11T01:44:47.737Z,3.22
2022-10-11T01:48:01.791Z,3.24
2022-10-11T01:51:03.995Z,3.27
2022-10-11T01:54:35.221Z,3.35
2022-10-11T01:58:34.440Z,3.45
2022-10-11T02:01:49.295Z,3.45
2022-10-11T02:04:55.412Z,3.32
2022-10-11T02:08:27.155Z,3.23
2022-10-11T02:11:30.552Z,3.17
2022-10-11T02:14:36.281Z,3.18
2022-10-11T02:17:45.230Z,3.17
2022-10-11T02:20:47.538Z,3.14
2022-10-11T02:24:06.951Z,3.11
2022-10-11T02:27:09.760Z,3.10
2022-10-11T02:30:11.550Z,3.10
2022-10-11T02:33:15.359Z,3.08
2022-10-11T02:36:26.226Z,3.10
2022-10-11T02:39:39.501Z,3.13
2022-10-11T02:42:48.800Z,3.16
2022-10-11T02:46:02.047Z,3.18
2022-10-11T02:49:04.271Z,3.20
2022-10-11T02:52:06.160Z,3.22
2022-10-11T02:55:08.118Z,3.26
2022-10-11T02:58:10.146Z,3.28
2022-10-11T03:01:11.804Z,3.27
2022-10-11T03:04:13.430Z,3.25
2022-10-11T03:07:15.481Z,3.26
2022-10-11T03:10:17.217Z,3.26
2022-10-11T03:13:19.066Z,3.29
2022-10-11T03:16:20.822Z,3.35
2022-10-11T03:19:22.404Z,3.40
2022-10-11T03:22:24.076Z,3.48
2022-10-11T03:25:25.723Z,3.57
2022-10-11T03:28:27.509Z,3.66
2022-10-11T03:31:29.146Z,3.75
2022-10-11T03:34:30.770Z,3.83
2022-10-11T03:37:32.335Z,3.92
2022-10-11T03:40:34.263Z,3.94
2022-10-11T03:43:36.063Z,4.00
2022-10-11T03:46:37.619Z,4.16
2022-10-11T03:49:43.412Z,4.37
2022-10-11T03:52:45.722Z,4.46
2022-10-11T03:55:52.327Z,4.49
2022-10-11T03:58:53.973Z,4.57
2022-10-11T04:01:55.792Z,4.71
2022-10-11T04:04:57.539Z,4.89
2022-10-11T04:07:59.097Z,5.06
2022-10-11T04:11:00.775Z,5.16
2022-10-11T04:14:02.658Z,5.21
2022-10-11T04:17:04.359Z,5.27
2022-10-11T04:20:06.374Z,5.33
2022-10-11T04:23:08.762Z,5.34
2022-10-11T04:26:10.535Z,5.24
2022-10-11T04:29:12.384Z,5.15
2022-10-11T04:32:14.086Z,5.12
2022-10-11T04:35:15.889Z,5.04
2022-10-11T04:38:17.543Z,4.91
2022-10-11T04:41:19.170Z,4.70
2022-10-11T04:44:20.872Z,4.47
2022-10-11T04:47:22.621Z,4.39
2022-10-11T04:50:24.321Z,4.73
2022-10-11T04:53:26.085Z,5.22
2022-10-11T04:56:29.024Z,5.38
2022-10-11T04:59:31.081Z,5.30
2022-10-11T05:02:32.885Z,5.41
2022-10-11T05:05:34.604Z,5.58
2022-10-11T05:08:36.449Z,5.77
2022-10-11T05:11:38.061Z,5.86
2022-10-11T05:14:39.680Z,5.97
2022-10-11T05:17:41.462Z,6.09
2022-10-11T05:20:42.998Z,6.30
2022-10-11T05:23:45.728Z,6.50
2022-10-11T05:26:47.838Z,6.64
2022-10-11T05:29:49.543Z,6.70
2022-10-11T05:32:51.177Z,6.81
2022-10-11T05:35:53.018Z,6.95
2022-10-11T05:38:54.722Z,7.16
2022-10-11T05:41:56.952Z,7.34
2022-10-11T05:44:58.655Z,7.51
2022-10-11T05:48:00.477Z,7.68
2022-10-11T05:51:05.198Z,7.82
2022-10-11T05:54:07.017Z,7.94
2022-10-11T05:57:08.627Z,8.03
2022-10-11T06:00:10.749Z,8.11
2022-10-11T06:03:13.628Z,8.17
2022-10-11T06:06:15.953Z,8.22
2022-10-11T06:09:17.921Z,8.30
2022-10-11T06:12:19.728Z,8.40
2022-10-11T06:15:21.511Z,8.49
2022-10-11T06:18:23.176Z,8.59
2022-10-11T06:21:24.910Z,8.65
2022-10-11T06:24:26.632Z,8.71
2022-10-11T06:27:28.480Z,8.78
2022-10-11T06:30:30.103Z,8.87
2022-10-11T06:33:32.290Z,8.95
2022-10-11T06:36:34.044Z,9.06
2022-10-11T06:39:35.687Z,9.18
2022-10-11T06:42:38.309Z,9.33
2022-10-11T06:45:39.898Z,9.47
2022-10-11T06:48:45.843Z,9.60
2022-10-11T06:51:47.514Z,9.73
2022-10-11T06:54:49.298Z,9.83
2022-10-11T06:57:50.958Z,9.89
2022-10-11T07:00:52.658Z,9.93
2022-10-11T07:03:56.307Z,9.96
2022-10-11T07:06:57.976Z,10.02
2022-10-11T07:09:59.720Z,10.10
2022-10-11T07:13:01.467Z,10.23
2022-10-11T07:16:05.365Z,10.38
2022-10-11T07:19:07.352Z,10.55
2022-10-11T07:22:09.226Z,10.73
2022-10-11T07:25:10.921Z,10.85
2022-10-11T07:28:13.492Z,10.95
2022-10-11T07:31:18.006Z,11.03
2022-10-11T07:34:20.731Z,11.10
2022-10-11T07:37:22.391Z,11.14
2022-10-11T07:40:24.465Z,11.19
2022-10-11T07:43:26.134Z,11.26
2022-10-11T07:46:27.768Z,11.37
2022-10-11T07:49:29.458Z,11.49
2022-10-11T07:52:31.170Z,11.59
2022-10-11T07:55:40.318Z,11.69
2022-10-11T07:58:42.723Z,11.80
2022-10-11T08:01:44.910Z,11.94
2022-10-11T08:04:46.587Z,12.06
2022-10-11T08:07:48.910Z,12.19
2022-10-11T08:10:50.602Z,12.28
2022-10-11T08:13:52.432Z,12.29
2022-10-11T08:16:54.123Z,12.27
2022-10-11T08:19:55.864Z,12.24
2022-10-11T08:22:57.599Z,12.20
2022-10-11T08:25:59.260Z,12.15
2022-10-11T08:29:05.314Z,12.11
2022-10-11T08:32:07.274Z,12.07
2022-10-11T08:35:09.073Z,12.01
2022-10-11T08:38:11.094Z,11.97
2022-10-11T08:41:47.716Z,11.94
2022-10-11T08:48:21.766Z,11.96
2022-10-11T08:51:32.702Z,12.00
2022-10-11T08:54:46.928Z,12.00
2022-10-11T08:57:53.265Z,11.99
2022-10-11T09:00:56.923Z,11.97
2022-10-11T09:04:03.663Z,11.95
2022-10-11T09:07:09.418Z,11.93
2022-10-11T09:10:46.563Z,11.91
2022-10-11T09:14:09.780Z,11.89
2022-10-11T09:17:37.133Z,11.88
2022-10-11T09:21:12.313Z,11.86
2022-10-11T09:24:52.507Z,11.86
2022-10-11T09:28:03.899Z,11.87
2022-10-11T09:31:09.937Z,11.87
2022-10-11T09:34:14.654Z,11.88
2022-10-11T09:37:32.777Z,11.90
2022-10-11T09:40:48.021Z,11.95
2022-10-11T09:43:51.443Z,12.02
2022-10-11T09:46:55.542Z,12.09
2022-10-11T09:50:07.776Z,12.17
2022-10-11T09:53:09.465Z,12.27
2022-10-11T09:56:11.217Z,12.36
2022-10-11T09:59:29.540Z,12.43
2022-10-11T10:02:43.199Z,12.52
2022-10-11T10:05:44.880Z,12.64
2022-10-11T10:08:47.821Z,12.84
2022-10-11T10:11:49.593Z,13.05
2022-10-11T10:15:18.218Z,13.25
2022-10-11T10:18:27.758Z,13.41
2022-10-11T10:21:37.975Z,13.54
2022-10-11T10:24:41.748Z,13.84
2022-10-11T10:27:57.474Z,14.15
2022-10-11T10:30:59.952Z,14.36
2022-10-11T10:34:03.078Z,14.63
2022-10-11T10:37:20.569Z,14.77
2022-10-11T10:40:36.453Z,15.07
2022-10-11T10:43:40.367Z,15.48
2022-10-11T10:47:09.919Z,16.34
2022-10-11T10:50:19.201Z,16.57
2022-10-11T10:53:39.265Z,16.26
2022-10-11T10:56:53.785Z,16.15
2022-10-11T11:00:07.671Z,16.16
2022-10-11T11:03:13.830Z,16.26
2022-10-11T11:06:30.541Z,16.10
2022-10-11T11:09:48.354Z,15.96
2022-10-11T11:13:17.303Z,15.92
2022-10-11T11:16:31.379Z,15.91
2022-10-11T11:19:46.444Z,15.96
2022-10-11T11:23:41.025Z,16.17
2022-10-11T11:26:56.782Z,16.39
2022-10-11T11:30:12.903Z,16.57
2022-10-11T11:33:33.477Z,16.70
2022-10-11T11:37:07.718Z,16.75
2022-10-11T11:40:12.982Z,16.85
2022-10-11T11:43:17.417Z,17.16
2022-10-11T11:46:23.521Z,17.57
2022-10-11T11:49:35.512Z,17.89
2022-10-11T11:52:40.606Z,17.80
2022-10-11T11:55:57.660Z,17.80
2022-10-11T11:59:49.276Z,17.92
2022-10-11T12:02:55.625Z,18.31
2022-10-11T12:06:33.116Z,18.43
2022-10-11T12:09:36.597Z,18.61
2022-10-11T12:12:38.286Z,18.49
2022-10-11T12:15:40.100Z,18.29
2022-10-11T12:18:56.856Z,17.98
2022-10-11T12:22:29.299Z,17.72
2022-10-11T12:25:38.546Z,17.44
2022-10-11T12:28:43.623Z,17.26
2022-10-11T12:31:48.071Z,17.22
2022-10-11T12:34:49.963Z,17.27
2022-10-11T12:37:51.921Z,17.41
2022-10-11T12:40:57.198Z,17.48
2022-10-11T12:44:28.042Z,17.41
2022-10-11T12:47:39.660Z,17.30
2022-10-11T12:50:47.471Z,17.23
2022-10-11T12:54:26.128Z,17.16
2022-10-11T12:57:48.140Z,17.04
2022-10-11T13:00:55.547Z,17.02
2022-10-11T13:04:01.057Z,17.08
2022-10-11T13:07:07.219Z,17.08
2022-10-11T13:10:14.821Z,17.02
2022-10-11T13:13:26.473Z,16.95
2022-10-11T13:16:30.699Z,16.87
2022-10-11T13:19:35.095Z,16.77
2022-10-11T13:22:39.869Z,16.58
2022-10-11T13:25:41.630Z,16.46
2022-10-11T13:28:43.402Z,16.51
2022-10-11T13:31:46.451Z,16.54
2022-10-11T13:34:50.439Z,16.43
2022-10-11T13:37:52.253Z,16.38
2022-10-11T13:40:55.967Z,16.39
2022-10-11T13:43:59.370Z,16.50
2022-10-11T13:47:01.120Z,16.61
2022-10-11T13:50:11.115Z,16.68
2022-10-11T13:53:12.720Z,16.68
2022-10-11T13:56:19.229Z,16.60
2022-10-11T13:59:23.562Z,16.52
2022-10-11T14:02:26.654Z,16.41
2022-10-11T14:06:01.429Z,16.27
2022-10-11T14:09:03.269Z,16.12
2022-10-11T14:12:29.162Z,15.83
2022-10-11T14:15:38.253Z,15.49
2022-10-11T14:18:45.104Z,15.23
2022-10-11T14:21:46.770Z,15.01
2022-10-11T14:24:48.618Z,14.87
2022-10-11T14:27:50.418Z,14.76
2022-10-11T14:30:52.176Z,14.70
2022-10-11T14:33:54.789Z,14.69
2022-10-11T14:36:56.513Z,14.69
2022-10-11T14:39:58.195Z,14.64
2022-10-11T14:42:59.932Z,14.56
2022-10-11T14:46:03.379Z,14.48
2022-10-11T14:49:17.613Z,14.35
2022-10-11T14:52:19.316Z,14.23
2022-10-11T14:55:21.025Z,14.09
2022-10-11T14:58:22.734Z,13.99
2022-10-11T15:01:24.574Z,14.20
2022-10-11T15:04:27.090Z,14.32
2022-10-11T15:07:28.756Z,14.16
2022-10-11T15:10:35.988Z,13.99
2022-10-11T15:13:37.718Z,13.93
2022-10-11T15:16:42.200Z,13.99
2022-10-11T15:19:44.003Z,14.03
2022-10-11T15:22:45.710Z,13.91
2022-10-11T15:25:48.101Z,13.83
2022-10-11T15:28:50.493Z,13.70
2022-10-11T15:31:52.323Z,13.48
2022-10-11T15:34:53.959Z,13.28
2022-10-11T15:37:58.143Z,13.11
2022-10-11T15:41:00.568Z,12.95
2022-10-11T15:44:02.325Z,12.80
2022-10-11T15:47:04.164Z,12.66
2022-10-11T15:50:23.669Z,12.53
2022-10-11T15:53:31.361Z,12.41
2022-10-11T15:56:33.979Z,12.28
2022-10-11T15:59:35.786Z,12.17
2022-10-11T16:02:37.481Z,12.07
2022-10-11T16:05:40.032Z,11.96
2022-10-11T16:08:41.736Z,11.86
2022-10-11T16:11:43.747Z,11.76
2022-10-11T16:14:47.322Z,11.65
2022-10-11T16:17:49.471Z,11.50
2022-10-11T16:20:52.540Z,11.33
2022-10-11T16:23:54.275Z,11.08
2022-10-11T16:26:55.949Z,10.81
2022-10-11T16:29:58.036Z,10.65
2022-10-11T16:32:59.797Z,10.54
2022-10-11T16:36:26.079Z,10.46
2022-10-11T16:39:27.890Z,10.39
2022-10-11T16:42:29.594Z,10.33
2022-10-11T16:45:33.000Z,10.27
2022-10-11T16:48:34.639Z,10.13
2022-10-11T16:51:36.269Z,9.88
2022-10-11T16:54:38.323Z,9.67
2022-10-11T16:57:40.067Z,9.52
2022-10-11T17:00:42.412Z,9.48
2022-10-11T17:03:44.169Z,9.41
2022-10-11T17:06:45.982Z,9.29
2022-10-11T17:09:49.093Z,9.28
2022-10-11T17:12:50.841Z,9.33
2022-10-11T17:15:52.602Z,9.32
2022-10-11T17:18:54.376Z,9.29
2022-10-11T17:21:56.012Z,9.24
2022-10-11T17:24:57.901Z,9.15
2022-10-11T17:27:59.620Z,8.99
2022-10-11T17:31:01.795Z,8.77
2022-10-11T17:34:03.547Z,8.59
2022-10-11T17:37:06.177Z,8.39
2022-10-11T17:40:09.130Z,8.16
2022-10-11T17:43:11.415Z,8.00
2022-10-11T17:46:15.348Z,7.83
2022-10-11T17:49:17.230Z,7.59
2022-10-11T17:52:19.178Z,7.40
2022-10-11T17:55:20.994Z,7.25
2022-10-11T17:58:22.806Z,7.12
2022-10-11T18:01:27.252Z,7.00
2022-10-11T18:04:30.237Z,6.90
2022-10-11T18:07:33.010Z,6.87
2022-10-11T18:10:38.185Z,6.89
2022-10-11T18:13:42.972Z,6.91
2022-10-11T18:16:44.937Z,6.94
2022-10-11T18:19:46.777Z,6.95
2022-10-11T18:22:49.667Z,6.92
2022-10-11T18:25:51.473Z,6.82
2022-10-11T18:28:55.008Z,6.62
2022-10-11T18:31:57.108Z,6.43
2022-10-11T18:34:59.916Z,6.33
2022-10-11T18:38:01.763Z,6.28
2022-10-11T18:41:08.813Z,6.12
2022-10-11T18:44:14.309Z,6.00
2022-10-11T18:47:16.082Z,5.94
2022-10-11T18:50:18.487Z,5.88
2022-10-11T18:53:20.212Z,5.75
2022-10-11T18:56:23.177Z,5.61
2022-10-11T18:59:24.966Z,5.50
2022-10-11T19:02:26.743Z,5.48
2022-10-11T19:05:28.493Z,5.37
2022-10-11T19:08:30.219Z,5.24
2022-10-11T19:11:32.297Z,5.20
2022-10-11T19:14:34.219Z,5.18
2022-10-11T19:17:35.958Z,5.10
2022-10-11T19:20:37.767Z,4.94
2022-10-11T19:23:42.251Z,4.84
2022-10-11T19:26:45.146Z,4.69
2022-10-11T19:29:47.028Z,4.51
2022-10-11T19:32:48.909Z,4.49
2022-10-11T19:35:57.320Z,4.59
2022-10-11T19:38:59.906Z,4.64
2022-10-11T19:42:01.859Z,4.68
2022-10-11T19:45:05.242Z,4.69
2022-10-11T19:48:10.208Z,4.77
2022-10-11T19:51:14.078Z,4.82
2022-10-11T19:54:20.354Z,4.84
2022-10-11T19:57:22.140Z,4.81
2022-10-11T20:00:24.387Z,4.78
2022-10-11T20:03:26.356Z,4.72
2022-10-11T20:06:29.057Z,4.63
2022-10-11T20:09:32.299Z,4.57
2022-10-11T20:12:40.235Z,4.53
2022-10-11T20:15:44.293Z,4.63
2022-10-11T20:18:46.402Z,4.64
2022-10-11T20:21:49.189Z,4.46
2022-10-11T20:24:52.614Z,4.36
2022-10-11T20:27:54.415Z,4.37
2022-10-11T20:30:56.461Z,4.37
2022-10-11T20:34:01.834Z,4.31
2022-10-11T20:37:03.590Z,4.26
2022-10-11T20:40:05.743Z,4.25
2022-10-11T20:43:07.599Z,4.30
2022-10-11T20:46:11.514Z,4.22
2022-10-11T20:49:13.510Z,4.18
2022-10-11T20:52:15.219Z,4.22
2022-10-11T20:55:16.924Z,4.16
2022-10-11T20:58:19.026Z,4.06
2022-10-11T21:01:24.042Z,4.08
2022-10-11T21:04:25.873Z,4.10
2022-10-11T21:07:27.613Z,4.17
2022-10-11T21:10:32.169Z,4.22
2022-10-11T21:13:34.247Z,4.24
2022-10-11T21:16:36.859Z,4.22
2022-10-11T21:19:38.702Z,4.18
2022-10-11T21:22:40.490Z,4.15
2022-10-11T21:25:42.313Z,4.08
2022-10-11T21:28:45.392Z,4.02
2022-10-11T21:31:47.228Z,4.02
2022-10-11T21:34:48.943Z,4.05
2022-10-11T21:37:50.630Z,4.04
2022-10-11T21:40:52.708Z,4.02
2022-10-11T21:43:54.772Z,3.97
2022-10-11T21:47:12.021Z,3.95
2022-10-11T21:50:14.115Z,3.92
2022-10-11T21:53:15.875Z,3.90
2022-10-11T21:56:18.226Z,3.86
2022-10-11T21:59:19.975Z,3.75
2022-10-11T22:02:21.699Z,3.69
2022-10-11T22:05:24.435Z,3.65
2022-10-11T22:08:26.313Z,3.57
2022-10-11T22:11:28.066Z,3.39
2022-10-11T22:14:29.890Z,3.18
2022-10-11T22:17:31.678Z,3.01
2022-10-11T22:20:33.518Z,2.98
2022-10-11T22:23:35.901Z,2.99
2022-10-11T22:26:37.809Z,3.03
2022-10-11T22:29:39.604Z,3.07
2022-10-11T22:32:42.109Z,3.11
2022-10-11T22:35:44.446Z,3.17
2022-10-11T22:38:46.680Z,3.18
2022-10-11T22:41:48.659Z,3.25
2022-10-11T22:44:50.901Z,3.32
2022-10-11T22:47:52.635Z,3.32
2022-10-11T22:50:54.821Z,3.32
2022-10-11T22:53:56.594Z,3.32
2022-10-11T22:56:58.385Z,3.28
2022-10-11T23:00:00.247Z,3.22
2022-10-11T23:03:02.104Z,3.18
2022-10-11T23:06:23.766Z,3.13
2022-10-11T23:09:40.997Z,3.07
2022-10-11T23:12:43.810Z,3.03
2022-10-11T23:15:45.862Z,3.00
2022-10-11T23:18:47.922Z,2.97
2022-10-11T23:21:49.683Z,2.91
2022-10-11T23:24:51.674Z,2.80
2022-10-11T23:27:53.352Z,2.66
2022-10-11T23:31:06.265Z,2.49
2022-10-11T23:34:07.972Z,2.37
2022-10-11T23:37:09.615Z,2.30
2022-10-11T23:40:11.546Z,2.28
2022-10-11T23:43:13.841Z,2.25
2022-10-11T23:46:15.541Z,2.23
2022-10-11T23:49:17.431Z,2.29
2022-10-11T23:52:19.223Z,2.37
2022-10-11T23:55:21.457Z,2.41
2022-10-11T23:58:23.289Z,2.44
